Terminal Aerodrome Forecast
Issued by NWS

Home | Current Version | Previous Version | Text Only | Print | Product List | Glossary On
Versions: 1 2 3 4 5 6 7 8 9 10 11 12 13 14 15 16 17 18 19 20 21 22
864
FTUS43 KDLH 090532
TAFHYR
TAF
KHYR 090532Z 0906/1006 33008KT 5SM -SN OVC025
      TEMPO 0906/0910 2SM -SN BKN025 OVC050
     FM091100 35006KT P6SM VCSH OVC015
     FM092100 34007KT P6SM SCT025=

USA.gov is the U.S. government's official web portal to all federal, state and local government web resources and services.